Mount Hope, Kansas
Current Conditions -  °F | °C
As of 2:12 PM on Sunday 21 Dec 2014 (Local Time) from KHUT Reporting Station
Haze Haze  
Wind Chill: 35°   Ceiling: 400
Heat Index: 43°   Visibility: 1.7mi
Dew Point: 41°   Wind: 18mph
Humidity: 93%   Direction: 170°S
Pressure: 29.76"   Gusts: 24mph
Location:  37.87°N, 97.67°W
Report Text: KHUT 212012Z 17016G21KT 1 3/4SM BR OVC004 06/05 A2976 RMK AO2 T00610050
Loading
Personal Weather Stations






























Interactive Weather Map New forecast layout! Learn more

10-Day Weather Forecast

Advertisements
Track Severe Weather on mobile